Time;durP1;ratioP1;P1;durP2;ratioP2;P2;SDS_P1;SDS_P2;PMS_P1;PMS_P2;Temp;Humidity;BMP_temperature;BMP_pressure;BME280_temperature;BME280_humidity;BME280_pressure;Samples;Min_cycle;Max_cycle;Signal;HPM_P1;HPM_P2
2024/04/06 00:00:52;;;;;;;6.15;2.70;;;;;;;13.51;100.00;98734.41;4968395;28;20068;-77
2024/04/06 00:03:18;;;;;;;8.43;2.95;;;;;;;13.33;100.00;98733.31;4964503;28;20022;-77
2024/04/06 00:05:43;;;;;;;3.33;1.92;;;;;;;13.35;100.00;98727.66;4962540;28;20025;-77
2024/04/06 00:08:08;;;;;;;3.10;1.92;;;;;;;13.63;100.00;98765.25;4994305;23;20038;-56
2024/04/06 00:10:34;;;;;;;4.25;1.80;;;;;;;13.72;100.00;98758.44;4987514;28;20647;-56
2024/04/06 00:12:59;;;;;;;4.05;2.58;;;;;;;13.81;100.00;98775.31;4991946;28;20026;-56
2024/04/06 00:15:25;;;;;;;9.75;3.00;;;;;;;13.58;100.00;98774.06;4987948;28;20053;-56
2024/04/06 00:17:50;;;;;;;6.28;3.28;;;;;;;13.45;100.00;98774.19;4965975;28;20507;-56
2024/04/06 00:20:15;;;;;;;6.45;2.42;;;;;;;13.29;100.00;98767.41;4963779;28;20490;-56
2024/04/06 00:22:41;;;;;;;8.90;2.53;;;;;;;13.40;100.00;98763.16;4963697;28;20031;-56
2024/04/06 00:25:06;;;;;;;4.80;1.95;;;;;;;13.53;100.00;98756.75;4962085;28;20037;-56
2024/04/06 00:27:32;;;;;;;6.25;2.40;;;;;;;13.68;100.00;98767.28;4968325;28;20097;-56
2024/04/06 00:29:58;;;;;;;3.85;2.20;;;;;;;13.73;100.00;98772.88;4958861;28;20158;-55
2024/04/06 00:32:24;;;;;;;4.18;2.53;;;;;;;13.75;100.00;98774.34;4965482;28;20497;-56
2024/04/06 00:34:49;;;;;;;4.03;2.28;;;;;;;13.72;100.00;98785.63;4973179;28;20557;-56
2024/04/06 00:37:15;;;;;;;3.50;1.98;;;;;;;13.71;100.00;98783.16;4959257;28;20028;-56
2024/04/06 00:39:40;;;;;;;7.57;2.30;;;;;;;13.67;100.00;98771.88;4963135;28;20034;-56
2024/04/06 00:42:08;;;;;;;9.18;2.53;;;;;;;13.68;100.00;98779.00;4972061;28;20041;-57
2024/04/06 00:44:34;;;;;;;5.78;2.50;;;;;;;13.61;100.00;98780.09;4963024;28;20376;-56
2024/04/06 00:47:02;;;;;;;5.28;2.58;;;;;;;13.56;100.00;98787.03;4968356;28;20101;-56
2024/04/06 00:49:32;;;;;;;5.50;2.30;;;;;;;13.58;100.00;98787.66;4960536;28;20031;-56
2024/04/06 00:51:57;;;;;;;4.95;2.40;;;;;;;13.54;100.00;98782.88;4973616;28;20030;-56
2024/04/06 00:54:23;;;;;;;5.63;2.25;;;;;;;13.58;100.00;98782.22;4970171;28;20045;-56
2024/04/06 00:56:49;;;;;;;4.30;2.00;;;;;;;13.53;100.00;98783.94;4972754;28;20027;-57
2024/04/06 00:59:16;;;;;;;5.82;2.38;;;;;;;13.44;100.00;98791.56;4958472;28;20118;-56
2024/04/06 01:01:43;;;;;;;3.83;2.13;;;;;;;13.31;100.00;98787.06;4972508;28;20054;-56
2024/04/06 01:04:08;;;;;;;3.85;2.15;;;;;;;13.17;100.00;98785.44;4974033;28;20471;-56
2024/04/06 01:06:34;;;;;;;5.38;2.53;;;;;;;13.06;100.00;98807.91;4963336;28;20074;-56
2024/04/06 01:08:59;;;;;;;7.95;2.42;;;;;;;12.84;100.00;98789.25;4962028;28;20077;-56
2024/04/06 01:11:24;;;;;;;3.47;1.90;;;;;;;12.76;100.00;98803.06;4960336;28;20026;-56
2024/04/06 01:13:50;;;;;;;4.38;1.80;;;;;;;12.65;100.00;98811.88;4965491;28;20041;-56
2024/04/06 01:16:15;;;;;;;3.85;2.00;;;;;;;12.65;100.00;98799.16;4965617;28;20081;-56
2024/04/06 01:18:41;;;;;;;3.47;1.98;;;;;;;12.56;100.00;98799.63;4954586;28;20487;-56
2024/04/06 01:21:06;;;;;;;4.25;2.05;;;;;;;12.41;100.00;98802.59;4970578;28;20046;-56
2024/04/06 01:23:35;;;;;;;4.72;2.33;;;;;;;12.36;100.00;98808.66;4962999;28;20020;-56
2024/04/06 01:26:01;;;;;;;6.90;2.22;;;;;;;12.25;100.00;98804.75;4966793;28;20078;-57
2024/04/06 01:28:27;;;;;;;6.40;2.20;;;;;;;12.17;100.00;98812.28;4961464;28;20065;-56
2024/04/06 01:30:52;;;;;;;6.53;2.90;;;;;;;12.09;100.00;98823.38;4958755;28;20062;-57
2024/04/06 01:33:18;;;;;;;5.68;2.65;;;;;;;12.00;100.00;98807.34;4966159;28;20069;-56
2024/04/06 01:35:43;;;;;;;5.00;2.58;;;;;;;12.01;100.00;98816.31;4965394;28;20525;-56
2024/04/06 01:38:08;;;;;;;3.78;2.20;;;;;;;11.89;100.00;98821.53;4971338;28;20027;-56
2024/04/06 01:40:34;;;;;;;6.25;2.60;;;;;;;11.85;100.00;98818.38;4966234;28;20042;-56
2024/04/06 01:42:59;;;;;;;5.63;2.20;;;;;;;11.80;100.00;98811.94;4966851;28;20073;-57
2024/04/06 01:45:25;;;;;;;8.15;2.22;;;;;;;11.75;100.00;98814.44;4962754;28;20129;-57
2024/04/06 01:47:50;;;;;;;3.42;1.70;;;;;;;11.67;100.00;98814.66;4962834;28;20033;-57
2024/04/06 01:50:15;;;;;;;4.07;1.77;;;;;;;11.56;100.00;98811.53;4973808;28;20027;-56
2024/04/06 01:52:41;;;;;;;3.42;1.45;;;;;;;11.61;100.00;98817.16;4966913;28;20058;-57
2024/04/06 01:55:06;;;;;;;2.22;1.30;;;;;;;11.57;100.00;98812.38;4967046;28;20026;-57
2024/04/06 01:57:32;;;;;;;3.00;1.55;;;;;;;11.58;100.00;98806.75;4969208;28;20035;-57
2024/04/06 01:59:57;;;;;;;3.47;1.20;;;;;;;11.53;100.00;98805.72;4969689;28;20026;-58
2024/04/06 02:02:23;;;;;;;2.65;1.15;;;;;;;11.37;100.00;98802.41;4969137;28;20034;-57
2024/04/06 02:04:49;;;;;;;5.45;1.40;;;;;;;11.42;100.00;98818.00;4969271;28;20027;-56
2024/04/06 02:07:18;;;;;;;3.60;1.40;;;;;;;11.30;100.00;98812.38;4969216;28;20027;-56
2024/04/06 02:09:43;;;;;;;3.92;1.40;;;;;;;11.24;100.00;98815.94;4967360;28;20027;-56
2024/04/06 02:12:09;;;;;;;2.72;1.15;;;;;;;11.25;100.00;98811.34;4970372;28;20029;-57
2024/04/06 02:14:34;;;;;;;6.40;1.50;;;;;;;11.12;100.00;98791.31;4968265;28;20510;-56
2024/04/06 02:17:03;;;;;;;3.35;1.10;;;;;;;11.21;100.00;98802.78;4967100;28;20043;-56
2024/04/06 02:19:28;;;;;;;2.70;1.23;;;;;;;11.17;100.00;98794.25;4971222;28;20026;-56
2024/04/06 02:21:54;;;;;;;3.65;1.67;;;;;;;11.20;100.00;98779.47;4966952;28;20039;-56
2024/04/06 02:24:20;;;;;;;10.57;1.60;;;;;;;11.27;100.00;98801.97;4974040;28;20035;-56
2024/04/06 02:26:45;;;;;;;5.93;1.80;;;;;;;11.24;100.00;98788.84;4963551;28;20031;-57
2024/04/06 02:29:11;;;;;;;5.10;1.90;;;;;;;11.14;100.00;98796.56;4960742;28;20039;-56
2024/04/06 02:31:36;;;;;;;4.70;1.50;;;;;;;11.09;100.00;98797.16;4972966;28;20048;-56
2024/04/06 02:34:02;;;;;;;3.55;1.77;;;;;;;11.00;100.00;98811.91;4966639;28;20116;-57
2024/04/06 02:36:28;;;;;;;7.70;1.80;;;;;;;10.94;100.00;98799.22;4974144;28;20063;-57
2024/04/06 02:38:53;;;;;;;5.05;2.13;;;;;;;11.10;100.00;98817.78;4969660;28;20106;-57
2024/04/06 02:41:18;;;;;;;6.53;2.00;;;;;;;10.94;100.00;98796.50;4963163;28;20470;-57
2024/04/06 02:43:44;;;;;;;4.50;2.35;;;;;;;10.83;100.00;98789.00;4964425;28;20027;-56
2024/04/06 02:46:10;;;;;;;3.83;1.75;;;;;;;10.94;100.00;98796.50;4963397;28;20030;-57
2024/04/06 02:48:36;;;;;;;9.18;2.63;;;;;;;11.12;100.00;98785.91;4974143;28;20023;-56
2024/04/06 02:51:02;;;;;;;6.40;2.80;;;;;;;11.13;100.00;98784.88;4975200;28;20518;-56
2024/04/06 02:53:28;;;;;;;4.40;1.80;;;;;;;11.15;100.00;98787.38;4972909;28;20466;-57
2024/04/06 02:55:55;;;;;;;8.32;2.10;;;;;;;11.11;100.00;98781.56;4976752;28;20029;-57
2024/04/06 02:58:21;;;;;;;6.90;2.03;;;;;;;11.07;100.00;98780.28;4958172;28;20035;-56
2024/04/06 03:00:47;;;;;;;6.78;2.10;;;;;;;11.16;100.00;98784.47;4973724;28;20027;-56
2024/04/06 03:03:13;;;;;;;4.32;2.22;;;;;;;11.17;100.00;98780.72;4972394;28;20057;-57
2024/04/06 03:05:39;;;;;;;3.97;2.40;;;;;;;11.01;100.00;98758.63;4998319;23;20378;-78
2024/04/06 03:08:04;;;;;;;3.80;1.85;;;;;;;10.95;100.00;98744.88;4999848;28;20022;-78
2024/04/06 03:10:29;;;;;;;7.95;2.00;;;;;;;11.11;100.00;98773.44;5002237;28;20036;-78
2024/04/06 03:12:55;;;;;;;5.82;2.22;;;;;;;11.15;100.00;98777.38;5024708;28;20025;-78
2024/04/06 03:15:20;;;;;;;7.28;2.08;;;;;;;11.10;100.00;98758.19;4999938;28;20025;-78
2024/04/06 03:17:45;;;;;;;3.53;2.13;;;;;;;11.34;100.00;98781.16;4998690;28;20152;-75
2024/04/06 03:20:10;;;;;;;3.25;1.75;;;;;;;11.23;100.00;98751.13;5006164;28;20029;-77
2024/04/06 03:22:36;;;;;;;4.93;2.20;;;;;;;11.42;100.00;98788.19;5006937;28;20097;-76
2024/04/06 03:25:01;;;;;;;3.17;2.10;;;;;;;11.37;100.00;98779.88;5001056;28;20022;-76
2024/04/06 03:27:26;;;;;;;6.75;2.25;;;;;;;11.26;100.00;98791.34;5021299;28;20072;-76
2024/04/06 03:29:51;;;;;;;5.85;2.05;;;;;;;10.85;100.00;98746.34;5021428;28;20386;-77
2024/04/06 03:32:17;;;;;;;4.55;1.80;;;;;;;11.15;100.00;98785.50;4998271;28;20022;-76
2024/04/06 03:34:42;;;;;;;4.22;1.98;;;;;;;11.02;100.00;98766.53;5015377;28;20022;-77
2024/04/06 03:37:07;;;;;;;4.57;2.15;;;;;;;11.07;100.00;98785.69;4998267;28;20096;-76
2024/04/06 03:39:33;;;;;;;5.15;1.92;;;;;;;10.84;100.00;98760.88;5017132;28;20325;-76
2024/04/06 03:41:59;;;;;;;4.15;1.80;;;;;;;10.89;100.00;98772.75;5002902;28;20042;-75
2024/04/06 03:44:24;;;;;;;5.78;2.00;;;;;;;10.88;100.00;98783.81;5012846;28;20053;-76
2024/04/06 03:46:50;;;;;;;3.50;1.90;;;;;;;10.85;100.00;98781.53;5000022;28;20028;-76
2024/04/06 03:49:15;;;;;;;3.90;1.92;;;;;;;10.87;100.00;98790.25;5019100;28;20081;-76
2024/04/06 03:51:40;;;;;;;3.58;1.80;;;;;;;10.84;100.00;98785.25;5007045;28;20056;-76
2024/04/06 03:54:06;;;;;;;7.22;2.42;;;;;;;10.83;100.00;98784.44;5015092;28;20022;-76
2024/04/06 03:56:31;;;;;;;5.13;1.73;;;;;;;10.78;100.00;98769.84;4998920;28;20022;-76
2024/04/06 03:58:57;;;;;;;6.40;1.73;;;;;;;10.71;100.00;98762.53;4996616;28;20034;-75
2024/04/06 04:01:22;;;;;;;3.67;1.60;;;;;;;10.83;100.00;98786.31;4992428;28;20049;-75
2024/04/06 04:03:47;;;;;;;4.70;1.60;;;;;;;10.72;100.00;98788.56;4999499;28;20014;-77
2024/04/06 04:06:13;;;;;;;7.85;1.85;;;;;;;10.62;100.00;98801.66;4998041;28;20036;-76
2024/04/06 04:08:38;;;;;;;5.93;1.85;;;;;;;10.48;100.00;98819.72;5002590;28;20021;-82
2024/04/06 04:11:04;;;;;;;3.55;1.90;;;;;;;10.38;100.00;98818.44;5011883;28;20057;-82
2024/04/06 04:13:29;;;;;;;6.60;2.35;;;;;;;10.23;100.00;98811.25;5007999;28;20302;-81
2024/04/06 04:15:54;;;;;;;6.03;2.17;;;;;;;10.21;100.00;98817.88;4995618;28;20737;-82
2024/04/06 04:18:20;;;;;;;2.97;1.85;;;;;;;10.12;100.00;98803.72;5002611;28;20233;-81
2024/04/06 04:20:45;;;;;;;4.70;2.40;;;;;;;10.17;100.00;98812.06;5006934;28;20329;-81
2024/04/06 04:23:11;;;;;;;4.15;2.05;;;;;;;10.26;100.00;98818.94;5006512;28;20021;-81
2024/04/06 04:25:37;;;;;;;6.20;2.08;;;;;;;10.20;100.00;98821.63;5007036;28;20068;-80
2024/04/06 04:28:02;;;;;;;5.78;2.40;;;;;;;10.09;100.00;98823.03;5003485;28;20025;-81
2024/04/06 04:30:28;;;;;;;7.57;2.45;;;;;;;10.13;100.00;98829.69;5000936;28;20158;-81
2024/04/06 04:32:53;;;;;;;8.43;2.15;;;;;;;10.06;100.00;98831.53;5001606;28;20097;-80
2024/04/06 04:35:19;;;;;;;9.77;2.13;;;;;;;9.96;100.00;98828.38;5002449;28;20022;-77
2024/04/06 04:37:45;;;;;;;9.20;2.35;;;;;;;9.91;100.00;98828.13;5001700;28;20056;-81
2024/04/06 04:40:11;;;;;;;5.25;2.30;;;;;;;9.89;100.00;98831.03;5005207;28;20345;-79
2024/04/06 04:42:36;;;;;;;3.13;1.80;;;;;;;9.53;100.00;98793.38;5012536;28;20153;-79
2024/04/06 04:45:09;;;;;;;6.68;1.98;;;;;;;9.79;100.00;98846.75;5006717;28;20057;-82
2024/04/06 04:47:34;;;;;;;5.78;2.30;;;;;;;9.73;100.00;98853.78;5003560;28;20028;-82
2024/04/06 04:50:00;;;;;;;11.07;3.33;;;;;;;9.56;100.00;98823.53;5000294;28;20021;-78
2024/04/06 04:52:25;;;;;;;4.43;2.45;;;;;;;9.73;100.00;98851.06;4997692;28;20026;-79
2024/04/06 04:54:50;;;;;;;5.75;2.22;;;;;;;9.74;100.00;98849.19;5002960;28;20172;-79
2024/04/06 04:57:15;;;;;;;4.05;2.45;;;;;;;9.72;100.00;98854.81;4999562;28;20080;-79
2024/04/06 04:59:41;;;;;;;4.72;1.98;;;;;;;9.52;100.00;98814.16;4994823;28;20625;-79
2024/04/06 05:02:06;;;;;;;6.60;2.03;;;;;;;9.59;100.00;98819.63;4995260;28;20035;-78
2024/04/06 05:04:31;;;;;;;5.20;2.05;;;;;;;9.68;100.00;98848.13;5014059;28;20033;-78
2024/04/06 05:06:57;;;;;;;7.20;2.22;;;;;;;9.79;100.00;98842.16;4994689;28;20022;-78
2024/04/06 05:09:22;;;;;;;6.32;2.10;;;;;;;9.78;100.00;98836.97;4998031;28;20261;-76
2024/04/06 05:11:48;;;;;;;5.55;2.83;;;;;;;9.77;100.00;98819.94;4993849;28;20033;-77
2024/04/06 05:14:13;;;;;;;5.43;2.90;;;;;;;10.00;100.00;98848.53;5004203;28;20037;-77
2024/04/06 05:16:39;;;;;;;4.40;2.53;;;;;;;9.94;100.00;98822.31;4996704;28;20023;-77
2024/04/06 05:19:05;;;;;;;8.68;2.50;;;;;;;10.30;100.00;98846.47;4994126;28;20022;-70
2024/04/06 05:21:31;;;;;;;5.47;2.20;;;;;;;10.23;100.00;98822.06;4992912;28;20300;-77
2024/04/06 05:23:58;;;;;;;7.18;2.20;;;;;;;10.35;100.00;98818.81;4993119;28;20165;-73
2024/04/06 05:26:23;;;;;;;3.20;2.00;;;;;;;10.55;100.00;98825.13;4994293;28;20018;-74
2024/04/06 05:28:48;;;;;;;4.38;2.17;;;;;;;10.81;100.00;98846.03;4997037;28;20018;-74
2024/04/06 05:31:13;;;;;;;5.90;2.20;;;;;;;10.86;100.00;98835.44;4994126;28;20026;-74
2024/04/06 05:33:39;;;;;;;3.22;2.00;;;;;;;11.14;100.00;98848.81;4996706;28;20022;-76
2024/04/06 05:36:06;;;;;;;5.75;2.55;;;;;;;11.53;100.00;98816.56;4993484;28;20036;-74
2024/04/06 05:38:32;;;;;;;7.72;2.33;;;;;;;12.80;100.00;98836.88;4989164;28;20252;-74
2024/04/06 05:40:57;;;;;;;3.63;1.77;;;;;;;13.59;100.00;98799.34;4994375;28;20029;-74
2024/04/06 05:43:22;;;;;;;4.70;1.70;;;;;;;14.82;100.00;98805.72;4990326;28;20026;-77
2024/04/06 05:45:59;;;;;;;5.07;2.00;;;;;;;15.87;100.00;98791.47;4991132;28;20026;-76
2024/04/06 05:48:25;;;;;;;4.30;1.80;;;;;;;16.97;100.00;98807.97;4992156;28;20029;-76
2024/04/06 05:50:50;;;;;;;3.53;1.70;;;;;;;17.67;100.00;98818.50;4996752;28;20044;-76
2024/04/06 05:53:15;;;;;;;4.35;1.70;;;;;;;18.00;100.00;98810.53;5000355;28;20241;-79
2024/04/06 05:55:41;;;;;;;3.28;1.70;;;;;;;18.50;100.00;98810.41;5006247;28;20030;-79
2024/04/06 05:58:06;;;;;;;8.85;2.20;;;;;;;19.29;100.00;98802.78;5021484;28;20017;-79
2024/04/06 06:00:31;;;;;;;4.43;2.00;;;;;;;19.19;100.00;98798.84;5020448;28;20092;-79
2024/04/06 06:02:57;;;;;;;2.85;1.60;;;;;;;20.46;100.00;98794.53;5010501;28;20109;-80
2024/04/06 06:05:23;;;;;;;3.78;1.75;;;;;;;21.15;100.00;98819.00;5009351;28;20097;-80
2024/04/06 06:07:49;;;;;;;3.53;1.23;;;;;;;22.25;100.00;98816.81;5026784;28;20026;-80
2024/04/06 06:10:15;;;;;;;4.60;1.70;;;;;;;23.30;90.03;98771.63;5001896;28;20026;-80
2024/04/06 06:12:40;;;;;;;6.40;2.15;;;;;;;24.77;82.56;98808.34;5002301;28;20106;-80
2024/04/06 06:15:06;;;;;;;5.40;1.55;;;;;;;24.60;79.05;98809.66;5005244;28;20022;-80
2024/04/06 06:17:31;;;;;;;3.58;1.63;;;;;;;25.42;76.09;98814.09;5000242;28;20045;-79
2024/04/06 06:19:57;;;;;;;7.20;1.45;;;;;;;25.26;75.83;98816.25;4992106;28;20046;-79
2024/04/06 06:22:22;;;;;;;4.30;1.75;;;;;;;25.87;70.98;98797.84;4991793;28;20034;-77
2024/04/06 06:24:48;;;;;;;11.23;2.17;;;;;;;25.90;69.78;98810.28;4989156;28;20097;-78
2024/04/06 06:27:14;;;;;;;4.43;1.70;;;;;;;25.43;71.12;98803.81;5000260;28;20403;-78
2024/04/06 06:29:40;;;;;;;2.28;1.30;;;;;;;25.44;69.36;98772.22;4994063;28;20018;-78
2024/04/06 06:32:05;;;;;;;3.47;1.40;;;;;;;26.06;67.53;98772.81;4990820;28;20022;-73
2024/04/06 06:34:30;;;;;;;2.97;1.50;;;;;;;27.32;62.50;98795.44;4994380;28;20269;-77
2024/04/06 06:36:56;;;;;;;2.58;1.27;;;;;;;27.98;60.79;98800.50;4993140;28;20246;-77
2024/04/06 06:39:21;;;;;;;3.78;1.40;;;;;;;27.31;62.16;98773.56;4996848;28;20057;-76
2024/04/06 06:41:47;;;;;;;3.00;1.63;;;;;;;26.64;62.35;98772.22;4991082;28;20038;-76
2024/04/06 06:44:13;;;;;;;3.35;1.50;;;;;;;26.47;62.83;98783.13;5014519;28;20018;-76
2024/04/06 06:46:38;;;;;;;2.42;0.95;;;;;;;26.44;62.32;98801.22;5002449;28;20050;-76
2024/04/06 06:49:04;;;;;;;2.20;1.15;;;;;;;26.89;60.47;98778.38;5020785;28;20348;-76
2024/04/06 06:51:29;;;;;;;1.88;1.20;;;;;;;27.45;58.96;98792.94;4998040;28;20037;-78
2024/04/06 06:53:54;;;;;;;2.92;1.20;;;;;;;27.11;59.76;98788.69;4994979;28;20031;-77
2024/04/06 06:56:22;;;;;;;2.33;1.00;;;;;;;27.43;59.17;98818.28;5028371;28;20033;-74
2024/04/06 06:58:48;;;;;;;2.08;1.05;;;;;;;26.92;60.52;98816.63;4996478;28;20052;-77
2024/04/06 07:01:14;;;;;;;3.42;1.17;;;;;;;25.83;63.60;98801.50;5020991;28;20140;-78
2024/04/06 07:03:39;;;;;;;6.18;1.45;;;;;;;25.73;64.67;98833.00;5002833;28;20025;-78
2024/04/06 07:06:08;;;;;;;3.38;1.25;;;;;;;26.44;64.27;98828.94;5005314;28;20029;-79
2024/04/06 07:08:33;;;;;;;3.60;1.10;;;;;;;27.14;62.47;98835.28;4994897;28;20045;-79
2024/04/06 07:11:05;;;;;;;1.77;0.90;;;;;;;27.90;59.16;98843.00;4995364;28;20328;-78
2024/04/06 07:13:31;;;;;;;2.47;1.40;;;;;;;27.54;60.13;98816.06;5001954;28;20076;-77
2024/04/06 07:16:07;;;;;;;4.28;1.05;;;;;;;28.89;57.80;98831.69;5002280;28;20026;-78
2024/04/06 07:18:39;;;;;;;2.20;1.10;;;;;;;29.03;55.15;98827.63;5020045;28;20032;-78
2024/04/06 07:21:10;;;;;;;3.33;1.05;;;;;;;29.08;55.79;98811.94;4999153;28;20025;-78
2024/04/06 07:23:37;;;;;;;4.43;1.10;;;;;;;29.13;56.46;98832.09;4992573;28;20029;-78
2024/04/06 07:26:02;;;;;;;3.58;1.20;;;;;;;27.93;58.25;98803.44;4997372;28;20021;-78
2024/04/06 07:28:27;;;;;;;2.83;1.25;;;;;;;28.06;57.72;98805.31;4997697;28;20061;-77
2024/04/06 07:30:53;;;;;;;3.13;1.42;;;;;;;28.37;58.59;98810.88;4993260;28;20352;-76
2024/04/06 07:33:18;;;;;;;4.70;1.38;;;;;;;29.86;54.58;98792.41;4995676;28;20030;-76
2024/04/06 07:35:45;;;;;;;2.35;1.00;;;;;;;30.13;54.56;98842.25;5000973;28;20037;-77
2024/04/06 07:38:10;;;;;;;4.10;1.30;;;;;;;29.65;53.32;98811.81;4998753;28;20026;-77
2024/04/06 07:40:36;;;;;;;2.45;1.00;;;;;;;30.10;52.02;98823.41;5010851;28;20026;-77
2024/04/06 07:43:01;;;;;;;3.03;1.20;;;;;;;31.58;49.48;98828.22;4997026;28;20025;-77
2024/04/06 07:45:26;;;;;;;3.45;1.17;;;;;;;32.35;46.95;98850.19;4996667;28;20030;-78
2024/04/06 07:47:52;;;;;;;2.50;1.25;;;;;;;31.14;48.07;98836.09;5000343;28;20128;-78
2024/04/06 07:50:18;;;;;;;4.07;1.45;;;;;;;32.73;45.78;98857.50;5006021;28;20033;-78
2024/04/06 07:52:43;;;;;;;3.50;1.50;;;;;;;32.59;44.98;98837.41;5014696;28;20038;-77
2024/04/06 07:55:08;;;;;;;1.80;1.10;;;;;;;33.73;43.76;98846.63;5001778;28;20029;-77
2024/04/06 07:57:35;;;;;;;2.15;1.10;;;;;;;34.13;42.49;98812.06;5012947;28;20026;-78
2024/04/06 08:00:01;;;;;;;7.32;1.30;;;;;;;35.87;39.39;98827.84;5001049;28;20093;-77
2024/04/06 08:02:27;;;;;;;4.60;1.10;;;;;;;35.24;39.44;98806.41;5002034;28;20025;-77
2024/04/06 08:04:55;;;;;;;2.83;1.20;;;;;;;34.04;40.89;98823.44;5000018;28;20034;-78
2024/04/06 08:07:22;;;;;;;3.92;1.17;;;;;;;33.14;41.81;98838.81;4991183;28;20348;-76
2024/04/06 08:09:47;;;;;;;2.58;1.23;;;;;;;32.87;41.57;98829.94;4991498;28;20045;-76
2024/04/06 08:12:13;;;;;;;1.92;1.05;;;;;;;33.78;42.22;98832.34;5015577;28;20032;-76
2024/04/06 08:14:38;;;;;;;3.30;1.05;;;;;;;33.81;41.25;98836.44;4996609;28;20080;-76
2024/04/06 08:17:04;;;;;;;4.15;1.20;;;;;;;34.08;40.94;98833.97;5004349;28;20352;-75
2024/04/06 08:19:29;;;;;;;4.45;1.00;;;;;;;33.91;39.69;98841.53;5002739;28;20021;-76
2024/04/06 08:21:55;;;;;;;3.35;0.88;;;;;;;33.89;40.20;98804.56;5003018;28;20026;-76
2024/04/06 08:24:20;;;;;;;4.22;1.00;;;;;;;32.84;40.83;98838.22;4999808;28;20022;-76
2024/04/06 08:26:45;;;;;;;2.55;1.02;;;;;;;32.51;41.24;98836.34;4999170;28;20022;-76
2024/04/06 08:29:12;;;;;;;1.65;1.00;;;;;;;33.79;40.35;98828.34;4976059;28;20245;-76
2024/04/06 08:31:37;;;;;;;3.53;0.93;;;;;;;33.20;40.45;98811.34;5012927;28;20076;-75
2024/04/06 08:34:03;;;;;;;1.48;0.90;;;;;;;31.80;42.29;98824.22;4998464;28;20034;-76
2024/04/06 08:36:29;;;;;;;2.90;0.90;;;;;;;30.49;43.67;98801.09;4992842;28;20208;-75
2024/04/06 08:38:54;;;;;;;4.35;1.10;;;;;;;30.12;45.48;98807.13;5000696;28;20034;-75
2024/04/06 08:41:22;;;;;;;3.40;1.10;;;;;;;31.92;43.96;98814.25;5002452;28;20029;-76
2024/04/06 08:43:53;;;;;;;3.22;1.15;;;;;;;31.15;43.73;98817.34;4995606;28;20030;-76
2024/04/06 08:46:19;;;;;;;1.65;0.90;;;;;;;31.00;44.44;98810.38;4998207;28;20323;-76
2024/04/06 08:48:46;;;;;;;3.35;1.10;;;;;;;29.42;45.89;98781.31;4998271;28;20026;-75
2024/04/06 08:51:13;;;;;;;3.95;1.30;;;;;;;28.52;47.77;98806.84;4996332;28;20065;-75
2024/04/06 08:53:38;;;;;;;6.93;1.10;;;;;;;31.06;46.10;98806.22;5010935;28;20041;-79
2024/04/06 08:56:08;;;;;;;4.07;0.85;;;;;;;31.90;43.45;98806.19;4997756;28;20022;-73
2024/04/06 08:58:34;;;;;;;1.60;0.90;;;;;;;32.49;42.46;98800.28;4987924;28;20280;-73
2024/04/06 09:01:02;;;;;;;5.70;0.98;;;;;;;31.05;43.53;98803.75;5016593;28;20022;-74
2024/04/06 09:03:28;;;;;;;1.85;0.80;;;;;;;32.17;41.90;98803.94;4999280;28;20208;-74
2024/04/06 09:05:54;;;;;;;2.65;0.90;;;;;;;32.35;42.03;98798.97;4995765;28;20321;-76
2024/04/06 09:08:20;;;;;;;4.07;0.95;;;;;;;32.09;42.70;98806.53;4991051;28;20084;-76
2024/04/06 09:10:53;;;;;;;1.55;0.93;;;;;;;32.47;41.96;98797.03;4997205;28;20021;-76
2024/04/06 09:13:20;;;;;;;2.00;0.85;;;;;;;32.71;42.63;98782.19;4998731;28;20033;-76
2024/04/06 09:15:46;;;;;;;2.45;1.08;;;;;;;34.29;40.81;98763.53;4992290;28;20061;-76
2024/04/06 09:18:12;;;;;;;3.00;1.10;;;;;;;34.55;40.53;98783.44;4996253;28;20025;-76
2024/04/06 09:20:37;;;;;;;2.45;0.90;;;;;;;36.07;38.35;98768.69;5009709;28;20194;-76
2024/04/06 09:23:03;;;;;;;4.93;1.13;;;;;;;35.86;38.86;98753.00;4989835;28;20073;-76
2024/04/06 09:25:28;;;;;;;2.17;0.68;;;;;;;37.52;36.85;98765.72;4998289;28;20289;-77
2024/04/06 09:27:53;;;;;;;2.88;1.10;;;;;;;37.93;37.00;98766.56;4995599;28;20028;-77
2024/04/06 09:30:29;;;;;;;2.88;1.00;;;;;;;37.72;36.71;98757.88;5005090;28;20201;-76
2024/04/06 09:32:56;;;;;;;1.88;0.90;;;;;;;38.14;35.79;98756.72;5006688;28;20080;-76
2024/04/06 09:35:21;;;;;;;1.63;0.70;;;;;;;38.11;35.96;98744.19;5002320;28;20018;-76
2024/04/06 09:37:49;;;;;;;1.77;0.90;;;;;;;37.56;35.80;98752.44;4999903;28;20030;-76
2024/04/06 09:40:16;;;;;;;3.28;0.70;;;;;;;37.14;35.88;98742.22;4997821;28;20025;-76
2024/04/06 09:42:42;;;;;;;3.38;0.98;;;;;;;36.82;35.87;98731.28;4991257;28;20200;-76
2024/04/06 09:45:08;;;;;;;1.80;0.88;;;;;;;36.38;34.90;98751.53;5000699;28;20221;-76
2024/04/06 09:47:35;;;;;;;4.70;0.77;;;;;;;36.90;35.43;98749.13;5003967;28;20033;-77
2024/04/06 09:50:00;;;;;;;1.73;0.70;;;;;;;37.88;35.80;98749.97;4995370;28;20379;-77
2024/04/06 09:52:26;;;;;;;1.63;0.85;;;;;;;38.26;34.53;98747.94;4997339;28;20030;-76
2024/04/06 09:54:52;;;;;;;4.43;0.68;;;;;;;38.07;33.81;98743.34;5000504;28;20409;-76
2024/04/06 09:57:19;;;;;;;3.67;1.13;;;;;;;37.98;34.17;98737.19;4997219;28;20029;-77
2024/04/06 09:59:45;;;;;;;4.60;0.82;;;;;;;36.64;34.15;98745.13;5020389;28;20278;-76
2024/04/06 10:02:21;;;;;;;2.63;1.00;;;;;;;37.36;34.42;98722.75;4998034;28;20097;-76
2024/04/06 10:04:53;;;;;;;2.50;0.90;;;;;;;38.29;33.92;98721.72;5011081;28;20014;-77
2024/04/06 10:07:26;;;;;;;3.03;1.05;;;;;;;38.47;32.91;98738.88;4998078;28;20017;-77
2024/04/06 10:10:02;;;;;;;3.22;1.00;;;;;;;37.89;33.33;98736.69;5002288;28;20092;-76
2024/04/06 10:12:57;;;;;;;2.42;0.88;;;;;;;38.42;32.89;98730.72;5000603;28;20022;-77
2024/04/06 10:15:22;;;;;;;2.15;0.63;;;;;;;38.15;32.59;98716.78;4977513;28;20034;-77
2024/04/06 10:17:49;;;;;;;2.25;0.80;;;;;;;37.05;33.02;98722.78;5000174;28;20316;-75
2024/04/06 10:20:26;;;;;;;2.42;1.00;;;;;;;36.46;34.09;98721.47;5002764;28;20018;-76
2024/04/06 10:22:54;;;;;;;2.50;0.98;;;;;;;38.50;32.21;98714.66;4996888;28;20022;-77
2024/04/06 10:25:27;;;;;;;3.78;0.80;;;;;;;37.43;32.40;98715.19;5001782;28;20018;-78
2024/04/06 10:28:03;;;;;;;2.95;0.82;;;;;;;37.36;32.43;98714.28;5014760;28;20089;-76
2024/04/06 10:30:29;;;;;;;3.72;0.93;;;;;;;38.13;32.77;98705.06;5011740;28;20049;-76
2024/04/06 10:32:54;;;;;;;1.85;0.93;;;;;;;39.02;32.21;98695.59;4996130;28;20034;-76
2024/04/06 10:35:20;;;;;;;2.22;0.50;;;;;;;39.95;30.94;98695.06;5003909;28;20022;-77
2024/04/06 10:37:47;;;;;;;2.45;0.75;;;;;;;38.44;31.94;98688.78;5018088;28;20033;-76
2024/04/06 10:40:13;;;;;;;1.90;1.10;;;;;;;39.81;31.32;98688.19;5010986;28;20017;-76
2024/04/06 10:42:39;;;;;;;2.33;0.98;;;;;;;39.09;31.08;98692.78;5005473;28;20371;-77
2024/04/06 10:45:05;;;;;;;2.08;0.90;;;;;;;39.49;30.82;98676.78;5002915;28;20064;-76
2024/04/06 10:47:30;;;;;;;2.30;0.90;;;;;;;40.57;30.30;98686.16;5005240;28;20021;-76
2024/04/06 10:49:55;;;;;;;3.17;0.93;;;;;;;39.35;29.89;98703.00;5013422;28;20221;-76
2024/04/06 10:52:21;;;;;;;1.37;0.80;;;;;;;38.60;29.55;98673.53;5008852;28;20461;-76
2024/04/06 10:54:47;;;;;;;2.22;0.90;;;;;;;38.72;31.03;98670.34;5004397;28;20331;-76
2024/04/06 10:57:12;;;;;;;2.40;0.75;;;;;;;39.19;29.30;98663.72;4998947;28;20085;-76
2024/04/06 10:59:38;;;;;;;1.40;0.55;;;;;;;39.77;29.36;98681.69;4998552;28;20026;-75
2024/04/06 11:02:06;;;;;;;1.80;0.88;;;;;;;39.06;29.23;98661.66;5000341;28;20045;-75
2024/04/06 11:04:37;;;;;;;2.53;0.63;;;;;;;39.53;28.61;98685.28;5012480;28;20217;-75
2024/04/06 11:07:02;;;;;;;1.23;0.63;;;;;;;38.31;29.97;98654.31;5003016;28;20131;-75
2024/04/06 11:09:27;;;;;;;2.08;0.60;;;;;;;38.37;29.27;98678.19;5002817;28;20274;-75
2024/04/06 11:11:53;;;;;;;2.25;0.80;;;;;;;38.76;29.43;98648.56;5011680;28;20077;-75
2024/04/06 11:14:24;;;;;;;5.43;0.80;;;;;;;38.31;29.51;98668.47;5000704;28;20060;-75
2024/04/06 11:16:54;;;;;;;2.80;0.75;;;;;;;39.11;29.45;98678.25;5000582;28;20313;-75
2024/04/06 11:19:20;;;;;;;1.42;0.82;;;;;;;40.07;28.01;98666.34;5001501;28;20026;-75
2024/04/06 11:21:45;;;;;;;1.52;0.70;;;;;;;39.62;28.55;98671.56;4999073;28;20037;-75
2024/04/06 11:24:11;;;;;;;5.10;0.70;;;;;;;39.05;28.71;98638.22;5020246;28;20080;-75